Time,TemperatureF,DewpointF,PressureIn,WindDirection,WindDirectionDegrees,WindSpeedMPH,WindSpeedGustMPH,Humidity,HourlyPrecipIn,Conditions,Clouds,dailyrainin,SoftwareType,DateUTC
2013-09-09 00:01:00,47.3,45.4,30.09,NE,41,0.0,0.0,93,0.00,RA,,0.00,WeatherDisplay:10.37,2013-09-09 04:01:00,
2013-09-09 00:02:00,47.3,45.4,30.09,NE,42,0.0,0.0,93,0.00,RA,,0.00,WeatherDisplay:10.37,2013-09-09 04:02:00,
2013-09-09 00:07:00,47.1,44.9,30.09,NE,42,0.0,0.0,92,0.00,RA,,0.00,WeatherDisplay:10.37,2013-09-09 04:07:00,
2013-09-09 00:12:00,46.9,44.7,30.09,NE,42,0.0,0.0,92,0.00,,,0.00,WeatherDisplay:10.37,2013-09-09 04:12:00,
2013-09-09 00:17:00,46.7,44.5,30.09,NE,42,0.0,0.0,92,0.00,,,0.00,WeatherDisplay:10.37,2013-09-09 04:17:00,
2013-09-09 00:22:00,46.7,44.8,30.09,NE,42,0.0,0.0,93,0.00,,,0.00,WeatherDisplay:10.37,2013-09-09 04:22:00,
2013-09-09 00:27:00,46.7,44.8,30.09,NE,41,0.0,0.0,93,0.00,,,0.00,WeatherDisplay:10.37,2013-09-09 04:27:00,
2013-09-09 00:32:00,46.8,44.9,30.09,NE,42,0.0,0.0,93,0.00,,,0.00,WeatherDisplay:10.37,2013-09-09 04:32:00,
2013-09-09 00:37:00,46.8,44.9,30.09,NE,42,0.0,0.0,93,0.00,,,0.00,WeatherDisplay:10.37,2013-09-09 04:37:00,
2013-09-09 00:42:00,46.7,44.8,30.09,NE,41,0.0,0.0,93,0.00,,,0.00,WeatherDisplay:10.37,2013-09-09 04:42:00,
2013-09-09 00:47:00,46.7,44.8,30.09,NE,42,0.0,0.0,93,0.00,,,0.00,WeatherDisplay:10.37,2013-09-09 04:47:00,
2013-09-09 00:52:00,46.7,45.1,30.09,NE,42,0.0,0.0,94,0.00,,,0.00,WeatherDisplay:10.37,2013-09-09 04:52:00,
2013-09-09 00:57:00,46.8,45.2,30.09,NE,42,0.0,0.0,94,0.00,,,0.00,WeatherDisplay:10.37,2013-09-09 04:57:00,
2013-09-09 01:02:00,46.8,45.2,30.09,NE,41,0.0,0.0,94,0.00,,,0.00,WeatherDisplay:10.37,2013-09-09 05:02:00,
2013-09-09 01:07:00,46.9,45.3,30.09,NE,42,0.0,0.0,94,0.00,,,0.00,WeatherDisplay:10.37,2013-09-09 05:07:00,
2013-09-09 01:12:00,46.8,45.2,30.09,NE,42,0.0,0.0,94,0.00,,,0.00,WeatherDisplay:10.37,2013-09-09 05:12:00,
2013-09-09 01:17:00,46.7,45.1,30.10,NE,41,0.0,0.0,94,0.00,,,0.00,WeatherDisplay:10.37,2013-09-09 05:17:00,
2013-09-09 01:22:00,46.7,45.1,30.10,NE,42,0.0,0.0,94,0.00,,,0.00,WeatherDisplay:10.37,2013-09-09 05:22:00,
2013-09-09 01:27:00,46.7,45.1,30.10,NE,41,0.0,0.0,94,0.00,,,0.00,WeatherDisplay:10.37,2013-09-09 05:27:00,
2013-09-09 01:32:00,46.6,45.0,30.10,NE,42,0.0,0.0,94,0.00,,,0.00,WeatherDisplay:10.37,2013-09-09 05:32:00,
2013-09-09 01:37:00,46.5,44.9,30.10,NE,42,0.0,0.0,94,0.00,,,0.00,WeatherDisplay:10.37,2013-09-09 05:37:00,
2013-09-09 01:42:00,46.4,44.8,30.10,NE,41,0.0,0.0,94,0.00,,,0.00,WeatherDisplay:10.37,2013-09-09 05:42:00,
2013-09-09 01:47:00,46.2,44.6,30.10,NE,42,0.0,0.0,94,0.00,,,0.00,WeatherDisplay:10.37,2013-09-09 05:47:00,
2013-09-09 01:52:00,45.9,44.3,30.10,NE,41,0.0,0.0,94,0.00,,,0.00,WeatherDisplay:10.37,2013-09-09 05:52:00,
2013-09-09 01:57:00,45.6,44.0,30.10,NE,42,0.0,0.0,94,0.00,,,0.00,WeatherDisplay:10.37,2013-09-09 05:57:00,
2013-09-09 02:02:00,45.4,43.8,30.09,NE,41,0.0,0.0,94,0.00,,,0.00,WeatherDisplay:10.37,2013-09-09 06:02:00,
2013-09-09 02:07:00,45.3,43.7,30.10,NE,42,0.0,0.0,94,0.00,,,0.00,WeatherDisplay:10.37,2013-09-09 06:07:00,
2013-09-09 02:12:00,45.2,43.6,30.10,NE,42,0.0,0.0,94,0.00,,,0.00,WeatherDisplay:10.37,2013-09-09 06:12:00,
2013-09-09 02:17:00,45.2,43.9,30.10,NE,42,0.0,0.0,95,0.00,,,0.00,WeatherDisplay:10.37,2013-09-09 06:17:00,
2013-09-09 02:22:00,45.3,44.0,30.11,NE,41,0.0,0.0,95,0.00,,,0.00,WeatherDisplay:10.37,2013-09-09 06:22:00,
2013-09-09 02:27:00,45.4,44.1,30.11,NE,42,0.0,0.0,95,0.00,,,0.00,WeatherDisplay:10.37,2013-09-09 06:27:00,
2013-09-09 02:32:00,45.4,44.1,30.11,NE,42,0.0,0.0,95,0.00,,,0.00,WeatherDisplay:10.37,2013-09-09 06:32:00,
2013-09-09 02:37:00,45.5,44.2,30.11,NE,42,0.0,0.0,95,0.00,,,0.00,WeatherDisplay:10.37,2013-09-09 06:37:00,
2013-09-09 02:42:00,45.5,44.2,30.11,NE,41,0.0,0.0,95,0.00,,,0.00,WeatherDisplay:10.37,2013-09-09 06:42:00,
2013-09-09 02:47:00,45.4,44.1,30.11,NE,41,0.0,0.0,95,0.00,,,0.00,WeatherDisplay:10.37,2013-09-09 06:47:00,
2013-09-09 02:52:00,45.5,44.4,30.10,NE,42,0.0,0.0,96,0.00,,,0.00,WeatherDisplay:10.37,2013-09-09 06:52:00,
2013-09-09 02:57:00,45.5,44.4,30.11,NE,42,0.0,0.0,96,0.00,,,0.00,WeatherDisplay:10.37,2013-09-09 06:57:00,
2013-09-09 03:02:00,45.6,44.5,30.11,NE,42,0.0,0.0,96,0.00,,,0.00,WeatherDisplay:10.37,2013-09-09 07:02:00,
2013-09-09 03:07:00,45.8,44.7,30.10,NE,42,0.0,0.0,96,0.00,,,0.00,WeatherDisplay:10.37,2013-09-09 07:07:00,
2013-09-09 03:12:00,45.9,44.8,30.11,NE,42,0.0,0.0,96,0.00,,,0.00,WeatherDisplay:10.37,2013-09-09 07:12:00,
2013-09-09 03:17:00,45.9,44.8,30.11,NE,41,0.0,0.0,96,0.00,,,0.00,WeatherDisplay:10.37,2013-09-09 07:17:00,
2013-09-09 03:22:00,45.8,44.7,30.11,NE,42,0.0,0.0,96,0.00,,,0.00,WeatherDisplay:10.37,2013-09-09 07:22:00,
2013-09-09 03:27:00,45.8,44.7,30.10,NE,41,0.0,0.0,96,0.00,,,0.00,WeatherDisplay:10.37,2013-09-09 07:27:00,
2013-09-09 03:32:00,45.6,44.5,30.11,NE,42,0.0,0.0,96,0.00,,,0.00,WeatherDisplay:10.37,2013-09-09 07:32:00,
2013-09-09 03:37:00,45.5,44.4,30.11,NE,42,0.0,0.0,96,0.00,,,0.00,WeatherDisplay:10.37,2013-09-09 07:37:00,
2013-09-09 03:42:00,45.5,44.4,30.12,NE,42,0.0,0.0,96,0.00,,,0.00,WeatherDisplay:10.37,2013-09-09 07:42:00,
2013-09-09 03:47:00,45.7,44.6,30.11,NE,41,0.0,0.0,96,0.00,,,0.00,WeatherDisplay:10.37,2013-09-09 07:47:00,
2013-09-09 03:52:00,45.8,44.7,30.12,NE,42,0.0,0.0,96,0.00,,,0.00,WeatherDisplay:10.37,2013-09-09 07:52:00,
2013-09-09 03:57:00,45.9,44.8,30.12,NE,41,0.0,0.0,96,0.00,,,0.00,WeatherDisplay:10.37,2013-09-09 07:57:00,
2013-09-09 04:02:00,45.9,44.8,30.12,NE,41,0.0,0.0,96,0.00,,,0.00,WeatherDisplay:10.37,2013-09-09 08:02:00,
2013-09-09 04:07:00,46.0,44.9,30.12,NE,42,0.0,0.0,96,0.00,,,0.00,WeatherDisplay:10.37,2013-09-09 08:07:00,
2013-09-09 04:12:00,46.0,44.9,30.12,NE,42,0.0,0.0,96,0.00,,,0.00,WeatherDisplay:10.37,2013-09-09 08:12:00,
2013-09-09 04:17:00,46.0,44.9,30.12,NE,42,0.0,0.0,96,0.00,,,0.00,WeatherDisplay:10.37,2013-09-09 08:17:00,
2013-09-09 04:22:00,46.0,44.9,30.12,NE,41,0.0,0.0,96,0.00,,,0.00,WeatherDisplay:10.37,2013-09-09 08:22:00,
2013-09-09 04:27:00,45.9,44.8,30.12,NE,41,0.0,0.0,96,0.00,,,0.00,WeatherDisplay:10.37,2013-09-09 08:27:00,
2013-09-09 04:32:00,45.9,44.8,30.12,NE,41,0.0,0.0,96,0.00,,,0.00,WeatherDisplay:10.37,2013-09-09 08:32:00,
2013-09-09 04:37:00,45.9,44.8,30.12,NE,42,0.0,0.0,96,0.00,,,0.00,WeatherDisplay:10.37,2013-09-09 08:37:00,